Startpagina
METAR-TAF:

METAR-TAF

Vliegvelden :

Vliegbasis Volkel

Uden, Nederland

breedte: 51-39N, lengte: 005-42E, hoogte: 22 m

Actueel weer

Dit bericht is 24 minuten geleden gemaakt, om 21:56 UTC
Wind 3 kt uit het noordwesten, variërend tussen het westen en het noorden
Temperatuur 14°C
Vochtigheid 94%
Druk 1023 hPa
Zicht 10 km of meer
Weinig wolken op 1500 ft
Verspreide wolken op 2900 ft
Geheel bewolkt op 11000 ft

METAR: EHVK 242156Z AUTO 31003KT 270V350 9999 FEW015 SCT029 OVC110 14/13 Q1023 BLU

Tijdstip: 00:20 (22:20 UTC)


TAF: ontbreekt

Waarnemingen en weersverwachtingen van meer dan 4000 vliegvelden (METAR en TAF).

De beschikbare stations zijn de gele en rode punten op de kaart.

Ga met uw muis naar het station om de naam te zien.

Klik dan om waarnemingen en weersverwachtingen te zien.

kaart wijzigen: klik op de groene knoppen met een zwart kruis om in te zoomen, op de groene knop met een streepje om uit te zoomen of op de groene pijlen voor aangrenzende kaarten.


METAR-TAF: